createdAt,value
2018-05-23T00:01:38.352Z,72.70
2018-05-23T00:04:05.253Z,74.30
2018-05-23T00:06:31.416Z,74.20
2018-05-23T00:08:57.578Z,73.50
2018-05-23T00:11:23.728Z,74.50
2018-05-23T00:13:49.933Z,74.00
2018-05-23T00:16:16.508Z,74.50
2018-05-23T00:18:42.672Z,74.80
2018-05-23T00:21:09.563Z,75.90
2018-05-23T00:23:35.712Z,75.90
2018-05-23T00:26:01.867Z,76.40
2018-05-23T00:28:28.761Z,75.50
2018-05-23T00:30:55.000Z,75.30
2018-05-23T00:33:21.274Z,75.20
2018-05-23T00:35:48.164Z,75.30
2018-05-23T00:38:14.312Z,75.30
2018-05-23T00:40:40.567Z,74.40
2018-05-23T00:43:06.790Z,74.80
2018-05-23T00:45:32.973Z,74.50
2018-05-23T00:47:59.127Z,74.20
2018-05-23T00:50:25.271Z,75.10
2018-05-23T00:52:51.546Z,74.20
2018-05-23T00:55:30.069Z,75.00
2018-05-23T00:57:56.219Z,75.00
2018-05-23T01:00:22.365Z,74.90
2018-05-23T01:02:48.551Z,75.30
2018-05-23T01:05:14.702Z,75.50
2018-05-23T01:07:40.865Z,75.70
2018-05-23T01:10:07.056Z,74.40
2018-05-23T01:12:33.229Z,75.80
2018-05-23T01:15:00.138Z,74.30
2018-05-23T01:17:26.404Z,74.10
2018-05-23T01:19:53.312Z,74.60
2018-05-23T01:22:19.489Z,74.70
2018-05-23T01:24:46.933Z,73.40
2018-05-23T01:27:13.809Z,73.80
2018-05-23T01:29:39.970Z,73.70
2018-05-23T01:32:06.168Z,74.10
2018-05-23T01:34:32.316Z,74.60
2018-05-23T01:36:59.065Z,74.60
2018-05-23T01:39:26.768Z,74.60
2018-05-23T01:41:53.524Z,74.90
2018-05-23T01:44:20.757Z,76.00
2018-05-23T01:46:49.937Z,76.30
2018-05-23T01:49:25.348Z,76.20
2018-05-23T01:51:51.552Z,75.50
2018-05-23T01:54:18.467Z,76.50
2018-05-23T01:56:44.776Z,76.30
2018-05-23T01:59:11.101Z,76.90
2018-05-23T02:01:37.294Z,75.20
2018-05-23T02:04:03.975Z,76.00
2018-05-23T02:06:30.163Z,75.80
2018-05-23T02:08:56.723Z,76.00
2018-05-23T02:11:22.941Z,76.30
2018-05-23T02:13:49.335Z,75.90
2018-05-23T02:16:16.926Z,76.30
2018-05-23T02:18:43.390Z,76.20
2018-05-23T02:21:09.577Z,75.10
2018-05-23T02:23:36.483Z,75.20
2018-05-23T02:26:02.648Z,75.20
2018-05-23T02:28:29.573Z,76.50
2018-05-23T02:30:55.743Z,76.40
2018-05-23T02:33:21.953Z,76.20
2018-05-23T02:35:48.924Z,76.30
2018-05-23T02:38:15.124Z,76.20
2018-05-23T02:40:42.024Z,77.00
2018-05-23T02:43:08.165Z,76.90
2018-05-23T02:45:34.324Z,77.90
2018-05-23T02:48:01.224Z,76.70
2018-05-23T02:50:27.503Z,76.70
2018-05-23T02:52:54.395Z,76.70
2018-05-23T02:55:20.577Z,76.60
2018-05-23T02:57:47.552Z,76.90
2018-05-23T03:00:13.800Z,76.90
2018-05-23T03:02:39.951Z,77.80
2018-05-23T03:05:06.132Z,78.00
2018-05-23T03:07:32.273Z,77.70
2018-05-23T03:09:58.420Z,78.10
2018-05-23T03:12:24.573Z,77.90
2018-05-23T03:14:51.148Z,77.20
2018-05-23T03:17:17.316Z,77.50
2018-05-23T03:19:43.467Z,77.50
2018-05-23T03:22:10.470Z,77.00
2018-05-23T03:24:36.578Z,77.00
2018-05-23T03:27:02.736Z,77.40
2018-05-23T03:29:29.192Z,78.60
2018-05-23T03:31:55.344Z,78.90
2018-05-23T03:34:21.485Z,80.00
2018-05-23T03:36:47.646Z,78.40
2018-05-23T03:39:13.811Z,79.00
2018-05-23T03:41:41.142Z,79.10
2018-05-23T03:44:07.307Z,78.90
2018-05-23T03:46:34.215Z,78.90
2018-05-23T03:49:00.368Z,78.90
2018-05-23T03:51:27.299Z,77.40
2018-05-23T03:53:53.468Z,77.40
2018-05-23T03:56:19.812Z,77.90
2018-05-23T03:58:45.964Z,78.80
2018-05-23T04:01:24.536Z,77.90
2018-05-23T04:04:02.964Z,77.70
2018-05-23T04:06:41.344Z,79.00
2018-05-23T04:09:08.247Z,78.80
2018-05-23T04:11:34.420Z,79.40
2018-05-23T04:14:01.327Z,78.80
2018-05-23T04:16:28.207Z,77.80
2018-05-23T04:18:55.260Z,78.30
2018-05-23T04:21:22.156Z,78.00
2018-05-23T04:23:48.326Z,77.90
2018-05-23T04:26:15.237Z,79.40
2018-05-23T04:28:41.396Z,78.80
2018-05-23T04:31:08.296Z,78.30
2018-05-23T04:33:34.475Z,78.20
2018-05-23T04:36:01.787Z,78.80
2018-05-23T04:38:27.924Z,78.80
2018-05-23T04:40:54.148Z,78.80
2018-05-23T04:43:20.308Z,77.50
2018-05-23T04:45:47.212Z,78.80
2018-05-23T04:48:13.433Z,78.70
2018-05-23T04:50:39.653Z,78.10
2018-05-23T04:53:05.809Z,78.30
2018-05-23T04:55:31.972Z,78.00
2018-05-23T04:57:58.866Z,78.70
2018-05-23T05:00:25.639Z,78.70
2018-05-23T05:02:51.889Z,78.20
2018-05-23T05:05:18.806Z,78.20
2018-05-23T05:07:45.433Z,78.20
2018-05-23T05:10:11.593Z,77.50
2018-05-23T05:12:37.740Z,76.40
2018-05-23T05:15:04.024Z,76.40
2018-05-23T05:17:30.172Z,76.00
2018-05-23T05:19:56.350Z,76.60
2018-05-23T05:22:22.895Z,75.70
2018-05-23T05:24:49.097Z,76.60
2018-05-23T05:27:15.248Z,75.50
2018-05-23T05:29:41.397Z,76.70
2018-05-23T05:32:07.557Z,75.80
2018-05-23T05:34:34.857Z,77.10
2018-05-23T05:37:01.160Z,76.90
2018-05-23T05:39:27.311Z,75.40
2018-05-23T05:41:53.461Z,75.80
2018-05-23T05:44:19.739Z,75.70
2018-05-23T05:46:45.887Z,73.00
2018-05-23T05:49:12.053Z,71.60
2018-05-23T05:51:38.231Z,69.40
2018-05-23T05:54:04.396Z,71.20
2018-05-23T05:56:30.602Z,69.60
2018-05-23T05:58:56.752Z,69.00
2018-05-23T06:01:22.934Z,69.00
2018-05-23T06:03:49.224Z,67.80
2018-05-23T06:06:15.424Z,68.80
2018-05-23T06:08:41.569Z,69.10
2018-05-23T06:11:07.759Z,67.10
2018-05-23T06:13:33.928Z,67.40
2018-05-23T06:16:00.080Z,65.90
2018-05-23T06:18:27.098Z,66.00
2018-05-23T06:20:53.244Z,65.80
2018-05-23T06:23:19.401Z,65.90
2018-05-23T06:25:45.681Z,64.90
2018-05-23T06:28:11.832Z,65.10
2018-05-23T06:30:38.377Z,64.90
2018-05-23T06:33:05.297Z,65.50
2018-05-23T06:35:32.624Z,65.10
2018-05-23T06:37:58.767Z,65.00
2018-05-23T06:40:24.921Z,63.40
2018-05-23T06:42:51.076Z,63.40
2018-05-23T06:45:17.230Z,62.10
2018-05-23T06:47:43.407Z,62.30
2018-05-23T06:50:09.680Z,62.50
2018-05-23T06:52:35.819Z,62.30
2018-05-23T06:55:02.074Z,61.70
2018-05-23T06:57:28.816Z,60.70
2018-05-23T06:59:54.979Z,59.70
2018-05-23T07:02:21.871Z,58.80
2018-05-23T07:04:48.127Z,58.70
2018-05-23T07:07:14.401Z,58.30
2018-05-23T07:09:40.592Z,57.80
2018-05-23T07:12:06.756Z,58.20
2018-05-23T07:14:32.915Z,57.00
2018-05-23T07:16:59.120Z,57.60
2018-05-23T07:19:25.342Z,57.40
2018-05-23T07:21:51.500Z,57.50
2018-05-23T07:24:17.716Z,56.20
2018-05-23T07:26:43.965Z,56.10
2018-05-23T07:29:10.469Z,55.70
2018-05-23T07:31:36.652Z,58.10
2018-05-23T07:34:02.825Z,56.40
2018-05-23T07:36:29.118Z,55.50
2018-05-23T07:38:56.064Z,56.20
2018-05-23T07:41:22.955Z,53.80
2018-05-23T07:43:49.274Z,53.90
2018-05-23T07:46:15.424Z,53.90
2018-05-23T07:48:41.588Z,54.80
2018-05-23T07:51:07.766Z,54.80
2018-05-23T07:53:33.938Z,54.70
2018-05-23T07:56:00.184Z,53.00
2018-05-23T07:58:27.065Z,52.80
2018-05-23T08:00:53.301Z,52.20
2018-05-23T08:03:19.520Z,53.30
2018-05-23T08:05:45.928Z,53.60
2018-05-23T08:08:12.820Z,52.70
2018-05-23T08:10:39.026Z,52.60
2018-05-23T08:13:05.260Z,52.30
2018-05-23T08:15:31.508Z,51.60
2018-05-23T08:17:58.032Z,56.10
2018-05-23T08:20:24.273Z,51.60
2018-05-23T08:22:50.460Z,50.30
2018-05-23T08:25:16.667Z,49.50
2018-05-23T08:27:43.572Z,53.80
2018-05-23T08:30:09.780Z,53.20
2018-05-23T08:32:36.005Z,50.90
2018-05-23T08:35:02.156Z,51.60
2018-05-23T08:37:28.386Z,49.50
2018-05-23T08:39:54.687Z,49.00
2018-05-23T08:42:20.836Z,51.20
2018-05-23T08:44:47.216Z,49.10
2018-05-23T08:47:14.176Z,50.90
2018-05-23T08:49:41.077Z,50.70
2018-05-23T08:52:07.245Z,50.70
2018-05-23T08:54:34.164Z,50.30
2018-05-23T08:57:00.386Z,50.20
2018-05-23T08:59:26.533Z,49.60
2018-05-23T09:01:53.455Z,49.40
2018-05-23T09:04:19.677Z,49.40
2018-05-23T09:06:46.296Z,47.30
2018-05-23T09:09:12.456Z,49.40
2018-05-23T09:11:38.705Z,48.90
2018-05-23T09:14:05.648Z,49.90
2018-05-23T09:16:32.604Z,48.70
2018-05-23T09:18:59.512Z,46.60
2018-05-23T09:21:26.158Z,46.60
2018-05-23T09:23:53.153Z,47.40
2018-05-23T09:26:19.333Z,46.90
2018-05-23T09:28:45.552Z,47.40
2018-05-23T09:31:11.704Z,47.70
2018-05-23T09:33:37.876Z,48.70
2018-05-23T09:36:04.473Z,48.80
2018-05-23T09:38:31.416Z,48.40
2018-05-23T09:40:57.568Z,48.40
2018-05-23T09:43:23.734Z,48.20
2018-05-23T09:45:49.936Z,48.10
2018-05-23T09:48:16.102Z,48.70
2018-05-23T09:50:42.244Z,47.90
2018-05-23T09:53:08.401Z,48.60
2018-05-23T09:55:34.556Z,45.20
2018-05-23T09:58:00.727Z,47.90
2018-05-23T10:00:26.868Z,46.80
2018-05-23T10:02:53.781Z,45.10
2018-05-23T10:05:19.928Z,45.10
2018-05-23T10:07:46.077Z,44.90
2018-05-23T10:10:13.018Z,45.10
2018-05-23T10:12:40.329Z,47.50
2018-05-23T10:15:06.485Z,47.20
2018-05-23T10:17:32.636Z,43.50
2018-05-23T10:19:59.512Z,45.10
2018-05-23T10:22:25.668Z,45.00
2018-05-23T10:24:52.005Z,44.60
2018-05-23T10:27:18.164Z,42.90
2018-05-23T10:29:45.052Z,42.10
2018-05-23T10:32:11.211Z,42.00
2018-05-23T10:34:37.373Z,43.50
2018-05-23T10:37:03.592Z,42.60
2018-05-23T10:39:30.599Z,43.70
2018-05-23T10:41:56.773Z,43.70
2018-05-23T10:44:22.949Z,42.60
2018-05-23T10:46:49.157Z,41.70
2018-05-23T10:49:15.466Z,41.60
2018-05-23T10:51:41.690Z,41.50
2018-05-23T10:54:08.792Z,42.70
2018-05-23T10:56:34.958Z,43.30
2018-05-23T10:59:01.893Z,42.40
2018-05-23T11:01:28.787Z,43.30
2018-05-23T11:03:55.033Z,43.30
2018-05-23T11:06:21.206Z,42.10
2018-05-23T11:08:47.392Z,41.70
2018-05-23T11:11:13.650Z,41.40
2018-05-23T11:13:40.548Z,42.00
2018-05-23T11:16:07.070Z,41.60
2018-05-23T11:18:33.214Z,41.00
2018-05-23T11:20:59.363Z,40.10
2018-05-23T11:23:25.520Z,40.90
2018-05-23T11:25:52.432Z,40.30
2018-05-23T11:28:18.595Z,40.20
2018-05-23T11:30:45.504Z,42.50
2018-05-23T11:33:11.760Z,42.50
2018-05-23T11:35:38.652Z,39.80
2018-05-23T11:38:04.868Z,39.80
2018-05-23T11:40:31.029Z,40.10
2018-05-23T11:42:57.308Z,39.30
2018-05-23T11:45:23.451Z,40.00
2018-05-23T11:47:49.640Z,41.80
2018-05-23T11:50:16.548Z,40.30
2018-05-23T11:52:42.740Z,40.10
2018-05-23T11:55:08.916Z,40.10
2018-05-23T11:57:35.073Z,38.40
2018-05-23T12:00:02.091Z,38.60
2018-05-23T12:02:28.244Z,38.70
2018-05-23T12:04:55.136Z,40.90
2018-05-23T12:07:21.324Z,40.90
2018-05-23T12:09:48.436Z,39.50
2018-05-23T12:12:14.617Z,39.30
2018-05-23T12:14:40.785Z,39.80
2018-05-23T12:17:06.959Z,38.70
2018-05-23T12:19:33.963Z,40.80
2018-05-23T12:22:00.368Z,40.80
2018-05-23T12:24:26.924Z,41.60
2018-05-23T12:26:53.525Z,40.00
2018-05-23T12:29:19.668Z,40.00
2018-05-23T12:31:45.853Z,38.50
2018-05-23T12:34:12.816Z,40.40
2018-05-23T12:36:39.724Z,39.40
2018-05-23T12:39:05.934Z,39.40
2018-05-23T12:41:32.089Z,38.40
2018-05-23T12:43:58.228Z,41.20
2018-05-23T12:46:24.478Z,40.20
2018-05-23T12:48:50.804Z,39.20
2018-05-23T12:51:17.887Z,39.50
2018-05-23T12:53:44.164Z,39.50
2018-05-23T12:56:10.334Z,38.50
2018-05-23T12:58:36.495Z,39.60
2018-05-23T13:01:02.669Z,40.60
2018-05-23T13:03:29.650Z,39.90
2018-05-23T13:05:56.540Z,39.80
2018-05-23T13:08:22.716Z,39.90
2018-05-23T13:10:48.946Z,38.70
2018-05-23T13:13:15.244Z,40.40
2018-05-23T13:15:42.242Z,38.00
2018-05-23T13:18:08.424Z,37.80
2018-05-23T13:20:34.581Z,40.50
2018-05-23T13:23:00.740Z,39.50
2018-05-23T13:25:26.928Z,40.50
2018-05-23T13:27:53.116Z,39.90
2018-05-23T13:30:20.063Z,41.70
2018-05-23T13:32:47.008Z,39.70
2018-05-23T13:35:13.896Z,38.80
2018-05-23T13:37:40.062Z,38.70
2018-05-23T13:40:06.252Z,38.90
2018-05-23T13:42:32.430Z,38.40
2018-05-23T13:44:59.432Z,40.20
2018-05-23T13:47:25.579Z,40.20
2018-05-23T13:49:51.879Z,38.50
2018-05-23T13:52:18.056Z,39.20
2018-05-23T13:54:44.216Z,38.20
2018-05-23T13:57:10.500Z,37.20
2018-05-23T13:59:36.642Z,40.10
2018-05-23T14:02:02.797Z,39.90
2018-05-23T14:04:29.749Z,40.40
2018-05-23T14:06:55.899Z,40.40
2018-05-23T14:09:22.055Z,36.60
2018-05-23T14:11:48.208Z,37.30
2018-05-23T14:14:15.883Z,38.10
2018-05-23T14:16:42.792Z,37.30
2018-05-23T14:19:08.987Z,37.40
2018-05-23T14:21:35.258Z,36.70
2018-05-23T14:24:01.437Z,36.10
2018-05-23T14:26:27.628Z,36.50
2018-05-23T14:28:53.772Z,36.70
2018-05-23T14:31:20.703Z,35.10
2018-05-23T14:33:46.860Z,35.00
2018-05-23T14:36:13.092Z,36.60
2018-05-23T14:38:39.282Z,34.10
2018-05-23T14:41:05.456Z,35.50
2018-05-23T14:43:31.842Z,34.50
2018-05-23T14:45:57.944Z,34.50
2018-05-23T14:48:24.276Z,35.60
2018-05-23T14:50:50.437Z,35.20
2018-05-23T14:53:17.321Z,35.90
2018-05-23T14:55:43.621Z,35.80
2018-05-23T14:58:10.516Z,35.00
2018-05-23T15:00:36.711Z,34.90
2018-05-23T15:03:02.873Z,36.30
2018-05-23T15:05:29.063Z,34.80
2018-05-23T15:07:55.640Z,36.40
2018-05-23T15:10:21.792Z,37.10
2018-05-23T15:12:47.984Z,36.30
2018-05-23T15:15:14.177Z,37.00
2018-05-23T15:17:41.319Z,36.10
2018-05-23T15:20:08.348Z,37.30
2018-05-23T15:22:35.252Z,37.60
2018-05-23T15:25:01.399Z,37.60
2018-05-23T15:27:27.561Z,37.50
2018-05-23T15:29:54.449Z,40.00
2018-05-23T15:32:20.648Z,39.90
2018-05-23T15:34:47.541Z,36.90
2018-05-23T15:37:14.244Z,37.00
2018-05-23T15:39:40.413Z,37.50
2018-05-23T15:42:06.701Z,37.30
2018-05-23T15:44:32.995Z,37.20
2018-05-23T15:46:59.200Z,37.40
2018-05-23T15:49:25.836Z,37.40
2018-05-23T15:51:51.978Z,35.40
2018-05-23T15:54:18.189Z,38.10
2018-05-23T15:56:44.432Z,38.30
2018-05-23T15:59:11.056Z,35.80
2018-05-23T16:01:37.236Z,36.10
2018-05-23T16:04:04.221Z,36.70
2018-05-23T16:06:30.398Z,36.60
2018-05-23T16:08:57.396Z,37.10
2018-05-23T16:11:23.559Z,37.00
2018-05-23T16:13:49.751Z,37.80
2018-05-23T16:16:16.072Z,37.50
2018-05-23T16:18:42.289Z,38.40
2018-05-23T16:21:08.812Z,37.80
2018-05-23T16:23:35.001Z,37.60
2018-05-23T16:26:01.936Z,37.90
2018-05-23T16:28:28.229Z,37.90
2018-05-23T16:30:54.369Z,37.60
2018-05-23T16:33:20.910Z,37.80
2018-05-23T16:35:47.120Z,37.90
2018-05-23T16:38:13.376Z,36.80
2018-05-23T16:40:39.740Z,37.90
2018-05-23T16:43:05.899Z,37.60
2018-05-23T16:45:37.199Z,36.70
2018-05-23T16:48:03.599Z,36.70
2018-05-23T16:50:29.767Z,38.30
2018-05-23T16:52:55.933Z,38.40
2018-05-23T16:55:22.875Z,37.10
2018-05-23T16:57:50.244Z,38.50
2018-05-23T17:00:16.440Z,38.40
2018-05-23T17:02:42.568Z,37.60
2018-05-23T17:05:08.816Z,38.90
2018-05-23T17:07:35.688Z,41.10
2018-05-23T17:10:01.832Z,41.10
2018-05-23T17:12:27.991Z,39.20
2018-05-23T17:15:09.169Z,38.70
2018-05-23T17:17:35.335Z,40.60
2018-05-23T17:20:01.484Z,39.20
2018-05-23T17:22:27.640Z,40.10
2018-05-23T17:24:53.808Z,39.90
2018-05-23T17:27:20.686Z,40.00
2018-05-23T17:29:46.833Z,40.00
2018-05-23T17:32:12.957Z,40.30
2018-05-23T17:34:39.107Z,41.30
2018-05-23T17:37:05.277Z,41.10
2018-05-23T17:39:31.465Z,42.20
2018-05-23T17:41:57.600Z,42.80
2018-05-23T17:44:24.468Z,44.50
2018-05-23T17:46:50.651Z,44.40
2018-05-23T17:49:16.803Z,45.10
2018-05-23T17:51:43.738Z,45.50
2018-05-23T17:54:10.044Z,45.50
2018-05-23T17:56:36.184Z,46.50
2018-05-23T17:59:02.340Z,46.30
2018-05-23T18:01:29.233Z,46.50
2018-05-23T18:03:56.514Z,46.80
2018-05-23T18:06:22.751Z,46.70
2018-05-23T18:08:48.938Z,47.70
2018-05-23T18:11:15.166Z,46.70
2018-05-23T18:13:41.379Z,47.20
2018-05-23T18:16:07.668Z,47.20
2018-05-23T18:18:33.928Z,47.70
2018-05-23T18:21:00.203Z,48.30
2018-05-23T18:23:26.417Z,48.20
2018-05-23T18:25:52.611Z,48.20
2018-05-23T18:28:18.862Z,48.20
2018-05-23T18:30:45.007Z,49.10
2018-05-23T18:33:11.525Z,48.90
2018-05-23T18:35:37.724Z,48.70
2018-05-23T18:38:04.640Z,48.80
2018-05-23T18:40:31.266Z,48.70
2018-05-23T18:42:57.590Z,49.10
2018-05-23T18:45:23.808Z,49.40
2018-05-23T18:47:50.060Z,49.30
2018-05-23T18:50:16.261Z,49.90
2018-05-23T18:52:42.801Z,49.80
2018-05-23T18:55:09.148Z,50.10
2018-05-23T18:57:35.331Z,51.20
2018-05-23T19:00:01.514Z,51.80
2018-05-23T19:02:27.686Z,51.50
2018-05-23T19:04:53.896Z,51.80
2018-05-23T19:07:20.037Z,52.10
2018-05-23T19:09:46.198Z,51.80
2018-05-23T19:12:12.410Z,52.10
2018-05-23T19:14:38.975Z,52.50
2018-05-23T19:17:05.353Z,53.40
2018-05-23T19:19:31.621Z,51.70
2018-05-23T19:21:57.864Z,51.30
2018-05-23T19:24:24.304Z,51.50
2018-05-23T19:26:50.456Z,51.50
2018-05-23T19:29:17.664Z,52.10
2018-05-23T19:31:43.936Z,51.50
2018-05-23T19:34:10.114Z,84.00
2018-05-23T19:36:36.261Z,83.40
2018-05-23T19:39:02.504Z,82.10
2018-05-23T19:41:28.695Z,82.20
2018-05-23T19:43:54.848Z,83.20
2018-05-23T19:46:20.992Z,82.80
2018-05-23T19:48:47.322Z,80.00
2018-05-23T19:51:13.603Z,76.30
2018-05-23T19:53:39.897Z,72.70
2018-05-23T19:56:06.089Z,70.90
2018-05-23T19:58:32.241Z,69.30
2018-05-23T20:00:59.115Z,67.20
2018-05-23T20:03:25.999Z,65.60
2018-05-23T20:05:52.152Z,65.60
2018-05-23T20:08:18.772Z,63.60
2018-05-23T20:10:44.896Z,63.70
2018-05-23T20:13:11.036Z,63.50
2018-05-23T20:15:37.313Z,64.00
2018-05-23T20:18:04.204Z,62.80
2018-05-23T20:20:30.341Z,62.80
2018-05-23T20:22:56.490Z,61.00
2018-05-23T20:25:22.648Z,60.60
2018-05-23T20:27:48.793Z,59.90
2018-05-23T20:30:14.982Z,59.10
2018-05-23T20:32:41.904Z,59.50
2018-05-23T20:35:08.062Z,59.40
2018-05-23T20:37:34.956Z,58.60
2018-05-23T20:40:01.131Z,58.70
2018-05-23T20:42:28.055Z,58.40
2018-05-23T20:44:54.187Z,58.40
2018-05-23T20:47:20.792Z,58.70
2018-05-23T20:49:46.968Z,59.20
2018-05-23T20:52:13.877Z,58.10
2018-05-23T20:54:40.099Z,58.10
2018-05-23T20:57:06.349Z,58.10
2018-05-23T20:59:32.534Z,57.50
2018-05-23T21:01:58.693Z,58.20
2018-05-23T21:04:24.832Z,57.30
2018-05-23T21:06:51.106Z,57.30
2018-05-23T21:09:17.260Z,58.00
2018-05-23T21:11:43.432Z,57.80
2018-05-23T21:14:09.590Z,57.80
2018-05-23T21:16:35.835Z,57.70
2018-05-23T21:19:02.039Z,57.30
2018-05-23T21:21:28.308Z,58.30
2018-05-23T21:23:54.451Z,58.40
2018-05-23T21:26:20.619Z,58.50
2018-05-23T21:28:47.532Z,59.00
2018-05-23T21:31:13.682Z,58.80
2018-05-23T21:33:40.583Z,58.60
2018-05-23T21:36:06.887Z,58.50
2018-05-23T21:38:33.039Z,57.90
2018-05-23T21:40:59.184Z,58.40
2018-05-23T21:43:25.344Z,58.20
2018-05-23T21:45:52.247Z,58.60
2018-05-23T21:48:18.475Z,58.60
2018-05-23T21:50:45.850Z,58.60
2018-05-23T21:53:12.067Z,58.50
2018-05-23T21:55:38.301Z,58.40
2018-05-23T21:58:04.467Z,58.30
2018-05-23T22:00:30.708Z,58.30
2018-05-23T22:02:56.891Z,59.60
2018-05-23T22:05:23.052Z,58.70
2018-05-23T22:07:49.347Z,59.90
2018-05-23T22:10:15.488Z,59.10
2018-05-23T22:12:42.384Z,59.80
2018-05-23T22:15:08.613Z,59.60
2018-05-23T22:17:34.744Z,59.50
2018-05-23T22:20:01.016Z,59.80
2018-05-23T22:22:27.906Z,59.20
2018-05-23T22:24:54.103Z,59.00
2018-05-23T22:27:21.109Z,59.80
2018-05-23T22:29:47.287Z,59.80
2018-05-23T22:32:13.436Z,60.10
2018-05-23T22:34:39.588Z,60.60
2018-05-23T22:37:06.520Z,59.90
2018-05-23T22:39:32.706Z,59.90
2018-05-23T22:41:59.598Z,60.30
2018-05-23T22:44:26.228Z,60.30
2018-05-23T22:46:52.400Z,60.10
2018-05-23T22:49:18.550Z,60.90
2018-05-23T22:51:44.716Z,62.40
2018-05-23T22:54:11.137Z,62.70
2018-05-23T22:56:37.280Z,61.90
2018-05-23T22:59:03.656Z,62.10
2018-05-23T23:01:30.607Z,62.20
2018-05-23T23:03:57.635Z,62.90
2018-05-23T23:06:25.090Z,62.80
2018-05-23T23:08:51.249Z,62.70
2018-05-23T23:11:17.405Z,64.00
2018-05-23T23:13:43.622Z,64.80
2018-05-23T23:16:09.715Z,65.10
2018-05-23T23:18:36.612Z,65.30
2018-05-23T23:21:02.796Z,65.30
2018-05-23T23:23:29.700Z,66.20
2018-05-23T23:25:55.880Z,66.10
2018-05-23T23:28:22.022Z,66.90
2018-05-23T23:30:48.211Z,66.30
2018-05-23T23:33:15.103Z,66.30
2018-05-23T23:35:41.362Z,66.20
2018-05-23T23:38:07.504Z,67.50
2018-05-23T23:40:33.640Z,67.40
2018-05-23T23:43:00.544Z,70.00
2018-05-23T23:45:26.800Z,69.80
2018-05-23T23:47:53.025Z,68.60
2018-05-23T23:50:19.177Z,69.50
2018-05-23T23:52:46.069Z,69.90
2018-05-23T23:55:12.224Z,69.80
2018-05-23T23:57:38.398Z,70.20
